sensor_id;sensor_type;location;lat;lon;timestamp;P1;durP1;ratioP1;P2;durP2;ratioP2
10126;SDS011;13080;42.608;23.362;2022-09-09T00:01:08;12.23;;;8.50;;
10126;SDS011;13080;42.608;23.362;2022-09-09T00:03:37;10.10;;;9.10;;
10126;SDS011;13080;42.608;23.362;2022-09-09T00:06:07;12.00;;;8.82;;
10126;SDS011;13080;42.608;23.362;2022-09-09T00:08:39;10.03;;;8.90;;
10126;SDS011;13080;42.608;23.362;2022-09-09T00:11:07;9.73;;;8.03;;
10126;SDS011;13080;42.608;23.362;2022-09-09T00:13:37;12.43;;;9.10;;
10126;SDS011;13080;42.608;23.362;2022-09-09T00:16:07;10.07;;;9.02;;
10126;SDS011;13080;42.608;23.362;2022-09-09T00:18:44;12.77;;;8.80;;
10126;SDS011;13080;42.608;23.362;2022-09-09T00:21:13;9.13;;;8.00;;
10126;SDS011;13080;42.608;23.362;2022-09-09T00:23:43;14.03;;;8.33;;
10126;SDS011;13080;42.608;23.362;2022-09-09T00:26:12;9.63;;;8.07;;
10126;SDS011;13080;42.608;23.362;2022-09-09T00:28:41;12.07;;;8.40;;
10126;SDS011;13080;42.608;23.362;2022-09-09T00:31:12;9.80;;;8.80;;
10126;SDS011;13080;42.608;23.362;2022-09-09T00:33:38;10.43;;;8.87;;
10126;SDS011;13080;42.608;23.362;2022-09-09T00:36:09;11.53;;;8.27;;
10126;SDS011;13080;42.608;23.362;2022-09-09T00:38:40;9.83;;;8.20;;
10126;SDS011;13080;42.608;23.362;2022-09-09T00:41:09;14.13;;;9.00;;
10126;SDS011;13080;42.608;23.362;2022-09-09T00:43:38;9.77;;;8.27;;
10126;SDS011;13080;42.608;23.362;2022-09-09T00:46:18;9.87;;;8.40;;
10126;SDS011;13080;42.608;23.362;2022-09-09T00:48:48;10.83;;;8.60;;
10126;SDS011;13080;42.608;23.362;2022-09-09T00:51:17;8.83;;;7.90;;
10126;SDS011;13080;42.608;23.362;2022-09-09T00:53:56;82.13;;;54.10;;
10126;SDS011;13080;42.608;23.362;2022-09-09T00:56:25;55.53;;;36.03;;
10126;SDS011;13080;42.608;23.362;2022-09-09T00:58:55;14.90;;;11.40;;
10126;SDS011;13080;42.608;23.362;2022-09-09T01:01:24;9.67;;;8.77;;
10126;SDS011;13080;42.608;23.362;2022-09-09T01:03:52;18.47;;;16.83;;
10126;SDS011;13080;42.608;23.362;2022-09-09T01:06:20;11.50;;;10.50;;
10126;SDS011;13080;42.608;23.362;2022-09-09T01:08:52;13.40;;;12.03;;
10126;SDS011;13080;42.608;23.362;2022-09-09T01:11:26;13.50;;;11.77;;
10126;SDS011;13080;42.608;23.362;2022-09-09T01:13:56;15.70;;;13.98;;
10126;SDS011;13080;42.608;23.362;2022-09-09T01:16:25;9.77;;;8.80;;
10126;SDS011;13080;42.608;23.362;2022-09-09T01:18:53;13.67;;;11.07;;
10126;SDS011;13080;42.608;23.362;2022-09-09T01:21:22;10.15;;;8.43;;
10126;SDS011;13080;42.608;23.362;2022-09-09T01:26:38;11.50;;;7.93;;
10126;SDS011;13080;42.608;23.362;2022-09-09T01:29:07;11.77;;;8.47;;
10126;SDS011;13080;42.608;23.362;2022-09-09T01:31:35;9.30;;;8.40;;
10126;SDS011;13080;42.608;23.362;2022-09-09T01:34:04;9.23;;;8.35;;
10126;SDS011;13080;42.608;23.362;2022-09-09T01:36:36;8.50;;;7.70;;
10126;SDS011;13080;42.608;23.362;2022-09-09T01:39:04;9.27;;;8.37;;
10126;SDS011;13080;42.608;23.362;2022-09-09T01:41:31;13.00;;;9.27;;
10126;SDS011;13080;42.608;23.362;2022-09-09T01:43:59;9.80;;;8.27;;
10126;SDS011;13080;42.608;23.362;2022-09-09T01:46:25;10.73;;;7.70;;
10126;SDS011;13080;42.608;23.362;2022-09-09T01:48:54;11.53;;;9.20;;
10126;SDS011;13080;42.608;23.362;2022-09-09T01:51:21;13.53;;;9.33;;
10126;SDS011;13080;42.608;23.362;2022-09-09T01:53:47;12.97;;;11.30;;
10126;SDS011;13080;42.608;23.362;2022-09-09T01:56:20;10.53;;;9.43;;
10126;SDS011;13080;42.608;23.362;2022-09-09T01:58:53;10.00;;;9.00;;
10126;SDS011;13080;42.608;23.362;2022-09-09T02:01:37;10.03;;;9.03;;
10126;SDS011;13080;42.608;23.362;2022-09-09T02:04:08;9.37;;;8.47;;
10126;SDS011;13080;42.608;23.362;2022-09-09T02:06:37;9.70;;;8.70;;
10126;SDS011;13080;42.608;23.362;2022-09-09T02:09:05;9.93;;;8.63;;
10126;SDS011;13080;42.608;23.362;2022-09-09T02:11:33;13.90;;;10.30;;
10126;SDS011;13080;42.608;23.362;2022-09-09T02:14:00;12.33;;;9.50;;
10126;SDS011;13080;42.608;23.362;2022-09-09T02:16:28;23.43;;;15.63;;
10126;SDS011;13080;42.608;23.362;2022-09-09T02:19:00;16.30;;;13.83;;
10126;SDS011;13080;42.608;23.362;2022-09-09T02:21:27;12.53;;;10.60;;
10126;SDS011;13080;42.608;23.362;2022-09-09T02:23:54;13.47;;;9.57;;
10126;SDS011;13080;42.608;23.362;2022-09-09T02:26:23;11.00;;;9.47;;
10126;SDS011;13080;42.608;23.362;2022-09-09T02:28:50;12.30;;;8.87;;
10126;SDS011;13080;42.608;23.362;2022-09-09T02:31:18;11.53;;;8.37;;
10126;SDS011;13080;42.608;23.362;2022-09-09T02:33:46;14.33;;;8.20;;
10126;SDS011;13080;42.608;23.362;2022-09-09T02:36:16;10.40;;;9.33;;
10126;SDS011;13080;42.608;23.362;2022-09-09T02:38:45;27.67;;;9.67;;
10126;SDS011;13080;42.608;23.362;2022-09-09T02:41:15;12.13;;;9.17;;
10126;SDS011;13080;42.608;23.362;2022-09-09T02:43:42;10.80;;;9.30;;
10126;SDS011;13080;42.608;23.362;2022-09-09T02:46:10;13.87;;;9.27;;
10126;SDS011;13080;42.608;23.362;2022-09-09T02:48:39;12.23;;;9.27;;
10126;SDS011;13080;42.608;23.362;2022-09-09T02:51:14;11.60;;;10.07;;
10126;SDS011;13080;42.608;23.362;2022-09-09T02:53:44;11.03;;;8.67;;
10126;SDS011;13080;42.608;23.362;2022-09-09T02:56:14;12.07;;;8.30;;
10126;SDS011;13080;42.608;23.362;2022-09-09T02:58:42;10.10;;;9.00;;
10126;SDS011;13080;42.608;23.362;2022-09-09T03:01:08;11.37;;;9.93;;
10126;SDS011;13080;42.608;23.362;2022-09-09T03:03:35;12.07;;;9.17;;
10126;SDS011;13080;42.608;23.362;2022-09-09T03:06:01;13.20;;;10.00;;
10126;SDS011;13080;42.608;23.362;2022-09-09T03:08:28;10.47;;;9.33;;
10126;SDS011;13080;42.608;23.362;2022-09-09T03:10:57;11.23;;;9.63;;
10126;SDS011;13080;42.608;23.362;2022-09-09T03:13:26;11.83;;;9.90;;
10126;SDS011;13080;42.608;23.362;2022-09-09T03:15:53;15.67;;;9.93;;
10126;SDS011;13080;42.608;23.362;2022-09-09T03:18:19;15.10;;;10.00;;
10126;SDS011;13080;42.608;23.362;2022-09-09T03:20:45;13.63;;;9.97;;
10126;SDS011;13080;42.608;23.362;2022-09-09T03:23:13;21.80;;;10.40;;
10126;SDS011;13080;42.608;23.362;2022-09-09T03:25:45;15.77;;;9.53;;
10126;SDS011;13080;42.608;23.362;2022-09-09T03:28:23;16.67;;;10.17;;
10126;SDS011;13080;42.608;23.362;2022-09-09T03:30:57;12.67;;;9.50;;
10126;SDS011;13080;42.608;23.362;2022-09-09T03:33:24;13.67;;;9.37;;
10126;SDS011;13080;42.608;23.362;2022-09-09T03:35:50;9.47;;;8.03;;
10126;SDS011;13080;42.608;23.362;2022-09-09T03:38:17;9.20;;;7.87;;
10126;SDS011;13080;42.608;23.362;2022-09-09T03:40:48;13.83;;;9.60;;
10126;SDS011;13080;42.608;23.362;2022-09-09T03:43:15;12.20;;;9.87;;
10126;SDS011;13080;42.608;23.362;2022-09-09T03:45:46;16.43;;;9.23;;
10126;SDS011;13080;42.608;23.362;2022-09-09T03:48:13;10.37;;;7.23;;
10126;SDS011;13080;42.608;23.362;2022-09-09T03:50:43;8.13;;;6.97;;
10126;SDS011;13080;42.608;23.362;2022-09-09T03:53:10;6.80;;;6.20;;
10126;SDS011;13080;42.608;23.362;2022-09-09T03:55:36;8.67;;;6.60;;
10126;SDS011;13080;42.608;23.362;2022-09-09T03:58:03;9.80;;;7.30;;
10126;SDS011;13080;42.608;23.362;2022-09-09T04:00:29;8.27;;;7.47;;
10126;SDS011;13080;42.608;23.362;2022-09-09T04:03:09;8.83;;;7.37;;
10126;SDS011;13080;42.608;23.362;2022-09-09T04:05:39;10.23;;;6.90;;
10126;SDS011;13080;42.608;23.362;2022-09-09T04:08:07;7.13;;;5.67;;
10126;SDS011;13080;42.608;23.362;2022-09-09T04:10:34;6.33;;;5.73;;
10126;SDS011;13080;42.608;23.362;2022-09-09T04:13:02;7.73;;;6.93;;
10126;SDS011;13080;42.608;23.362;2022-09-09T04:15:30;8.50;;;7.37;;
10126;SDS011;13080;42.608;23.362;2022-09-09T04:18:08;7.87;;;7.07;;
10126;SDS011;13080;42.608;23.362;2022-09-09T04:20:55;7.20;;;5.93;;
10126;SDS011;13080;42.608;23.362;2022-09-09T04:23:22;5.90;;;5.30;;
10126;SDS011;13080;42.608;23.362;2022-09-09T04:25:54;7.17;;;5.20;;
10126;SDS011;13080;42.608;23.362;2022-09-09T04:28:24;7.87;;;5.73;;
10126;SDS011;13080;42.608;23.362;2022-09-09T04:30:50;6.40;;;4.33;;
10126;SDS011;13080;42.608;23.362;2022-09-09T04:33:23;3.57;;;3.23;;
10126;SDS011;13080;42.608;23.362;2022-09-09T04:35:50;3.43;;;3.13;;
10126;SDS011;13080;42.608;23.362;2022-09-09T04:38:18;3.70;;;3.30;;
10126;SDS011;13080;42.608;23.362;2022-09-09T04:40:46;3.80;;;3.23;;
10126;SDS011;13080;42.608;23.362;2022-09-09T04:43:16;3.47;;;3.00;;
10126;SDS011;13080;42.608;23.362;2022-09-09T04:45:46;6.25;;;4.05;;
10126;SDS011;13080;42.608;23.362;2022-09-09T04:48:13;5.33;;;3.87;;
10126;SDS011;13080;42.608;23.362;2022-09-09T04:50:53;3.63;;;3.20;;
10126;SDS011;13080;42.608;23.362;2022-09-09T05:01:54;2.93;;;2.63;;
10126;SDS011;13080;42.608;23.362;2022-09-09T05:05:52;1.67;;;1.57;;
10126;SDS011;13080;42.608;23.362;2022-09-09T05:07:22;1.83;;;1.67;;
10126;SDS011;13080;42.608;23.362;2022-09-09T05:09:52;1.50;;;1.40;;
10126;SDS011;13080;42.608;23.362;2022-09-09T05:12:18;2.00;;;1.80;;
10126;SDS011;13080;42.608;23.362;2022-09-09T05:14:48;1.65;;;1.08;;
10126;SDS011;13080;42.608;23.362;2022-09-09T05:17:25;1.13;;;0.90;;
10126;SDS011;13080;42.608;23.362;2022-09-09T05:19:54;0.90;;;0.90;;
10126;SDS011;13080;42.608;23.362;2022-09-09T05:22:20;1.58;;;0.98;;
10126;SDS011;13080;42.608;23.362;2022-09-09T05:24:49;0.50;;;0.50;;
10126;SDS011;13080;42.608;23.362;2022-09-09T05:27:19;0.68;;;0.68;;
10126;SDS011;13080;42.608;23.362;2022-09-09T05:29:49;4.97;;;0.73;;
10126;SDS011;13080;42.608;23.362;2022-09-09T05:32:16;8.48;;;1.52;;
10126;SDS011;13080;42.608;23.362;2022-09-09T05:34:42;1.73;;;1.60;;
10126;SDS011;13080;42.608;23.362;2022-09-09T05:48:23;1.10;;;1.02;;
10126;SDS011;13080;42.608;23.362;2022-09-09T05:50:52;1.15;;;1.05;;
10126;SDS011;13080;42.608;23.362;2022-09-09T05:53:21;1.52;;;1.35;;
10126;SDS011;13080;42.608;23.362;2022-09-09T05:55:47;1.90;;;1.25;;
10126;SDS011;13080;42.608;23.362;2022-09-09T05:58:14;1.90;;;1.42;;
10126;SDS011;13080;42.608;23.362;2022-09-09T06:00:45;1.30;;;1.20;;
10126;SDS011;13080;42.608;23.362;2022-09-09T06:03:12;1.65;;;1.55;;
10126;SDS011;13080;42.608;23.362;2022-09-09T06:08:48;2.38;;;2.17;;
10126;SDS011;13080;42.608;23.362;2022-09-09T06:11:16;2.28;;;2.08;;
10126;SDS011;13080;42.608;23.362;2022-09-09T06:13:43;1.95;;;1.50;;
10126;SDS011;13080;42.608;23.362;2022-09-09T06:16:10;2.25;;;2.05;;
10126;SDS011;13080;42.608;23.362;2022-09-09T06:18:37;2.05;;;1.80;;
10126;SDS011;13080;42.608;23.362;2022-09-09T06:21:04;3.42;;;2.80;;
10126;SDS011;13080;42.608;23.362;2022-09-09T06:23:31;1.52;;;1.42;;
10126;SDS011;13080;42.608;23.362;2022-09-09T06:26:05;3.78;;;2.85;;
10126;SDS011;13080;42.608;23.362;2022-09-09T06:28:33;3.72;;;2.60;;
10126;SDS011;13080;42.608;23.362;2022-09-09T06:30:59;1.85;;;1.75;;
10126;SDS011;13080;42.608;23.362;2022-09-09T06:33:26;3.65;;;2.08;;
10126;SDS011;13080;42.608;23.362;2022-09-09T06:35:53;2.08;;;1.88;;
10126;SDS011;13080;42.608;23.362;2022-09-09T06:38:20;1.85;;;1.35;;
10126;SDS011;13080;42.608;23.362;2022-09-09T06:40:50;1.63;;;1.52;;
10126;SDS011;13080;42.608;23.362;2022-09-09T06:43:19;2.03;;;1.92;;
10126;SDS011;13080;42.608;23.362;2022-09-09T06:45:52;3.08;;;2.10;;
10126;SDS011;13080;42.608;23.362;2022-09-09T06:48:18;2.92;;;1.88;;
10126;SDS011;13080;42.608;23.362;2022-09-09T06:50:45;17.48;;;1.80;;
10126;SDS011;13080;42.608;23.362;2022-09-09T06:53:16;11.50;;;2.33;;
10126;SDS011;13080;42.608;23.362;2022-09-09T06:58:23;1.75;;;1.30;;
10126;SDS011;13080;42.608;23.362;2022-09-09T07:00:53;2.10;;;1.35;;
10126;SDS011;13080;42.608;23.362;2022-09-09T07:03:52;2.10;;;1.60;;
10126;SDS011;13080;42.608;23.362;2022-09-09T07:06:20;2.25;;;1.92;;
10126;SDS011;13080;42.608;23.362;2022-09-09T07:08:50;1.52;;;1.40;;
10126;SDS011;13080;42.608;23.362;2022-09-09T07:11:27;1.17;;;1.10;;
10126;SDS011;13080;42.608;23.362;2022-09-09T07:14:09;1.45;;;1.35;;
10126;SDS011;13080;42.608;23.362;2022-09-09T07:16:37;1.33;;;1.23;;
10126;SDS011;13080;42.608;23.362;2022-09-09T07:19:04;1.17;;;1.08;;
10126;SDS011;13080;42.608;23.362;2022-09-09T07:21:34;1.95;;;1.50;;
10126;SDS011;13080;42.608;23.362;2022-09-09T07:24:07;1.98;;;1.45;;
10126;SDS011;13080;42.608;23.362;2022-09-09T07:26:36;0.70;;;0.70;;
10126;SDS011;13080;42.608;23.362;2022-09-09T07:29:03;1.58;;;1.42;;
10126;SDS011;13080;42.608;23.362;2022-09-09T07:31:31;2.58;;;0.93;;
10126;SDS011;13080;42.608;23.362;2022-09-09T07:33:59;1.60;;;1.50;;
10126;SDS011;13080;42.608;23.362;2022-09-09T07:36:26;1.42;;;1.33;;
10126;SDS011;13080;42.608;23.362;2022-09-09T07:38:54;2.00;;;1.80;;
10126;SDS011;13080;42.608;23.362;2022-09-09T07:41:22;1.02;;;1.00;;
10126;SDS011;13080;42.608;23.362;2022-09-09T07:43:50;1.23;;;1.13;;
10126;SDS011;13080;42.608;23.362;2022-09-09T07:46:19;1.60;;;1.50;;
10126;SDS011;13080;42.608;23.362;2022-09-09T07:48:48;2.00;;;1.30;;
10126;SDS011;13080;42.608;23.362;2022-09-09T07:51:16;1.17;;;1.08;;
10126;SDS011;13080;42.608;23.362;2022-09-09T07:53:44;1.70;;;1.30;;
10126;SDS011;13080;42.608;23.362;2022-09-09T07:56:11;1.80;;;1.60;;
10126;SDS011;13080;42.608;23.362;2022-09-09T07:58:39;1.40;;;1.05;;
10126;SDS011;13080;42.608;23.362;2022-09-09T08:01:06;1.00;;;0.98;;
10126;SDS011;13080;42.608;23.362;2022-09-09T08:03:33;2.17;;;1.60;;
10126;SDS011;13080;42.608;23.362;2022-09-09T08:06:01;1.45;;;1.35;;
10126;SDS011;13080;42.608;23.362;2022-09-09T08:08:28;4.13;;;0.80;;
10126;SDS011;13080;42.608;23.362;2022-09-09T08:11:00;3.38;;;1.52;;
10126;SDS011;13080;42.608;23.362;2022-09-09T08:13:27;2.42;;;1.80;;
10126;SDS011;13080;42.608;23.362;2022-09-09T08:15:53;0.82;;;0.82;;
10126;SDS011;13080;42.608;23.362;2022-09-09T08:18:21;1.17;;;1.08;;
10126;SDS011;13080;42.608;23.362;2022-09-09T08:20:48;1.23;;;1.13;;
10126;SDS011;13080;42.608;23.362;2022-09-09T08:23:16;1.67;;;1.30;;
10126;SDS011;13080;42.608;23.362;2022-09-09T08:25:46;4.18;;;1.90;;
10126;SDS011;13080;42.608;23.362;2022-09-09T08:28:13;1.63;;;1.52;;
10126;SDS011;13080;42.608;23.362;2022-09-09T08:30:40;1.65;;;1.25;;
10126;SDS011;13080;42.608;23.362;2022-09-09T08:33:07;1.75;;;1.15;;
10126;SDS011;13080;42.608;23.362;2022-09-09T08:35:35;0.93;;;0.85;;
10126;SDS011;13080;42.608;23.362;2022-09-09T08:38:01;1.15;;;1.10;;
10126;SDS011;13080;42.608;23.362;2022-09-09T08:40:30;2.83;;;1.60;;
10126;SDS011;13080;42.608;23.362;2022-09-09T08:42:59;1.63;;;1.20;;
10126;SDS011;13080;42.608;23.362;2022-09-09T08:45:29;0.88;;;0.88;;
10126;SDS011;13080;42.608;23.362;2022-09-09T08:48:07;3.42;;;1.35;;
10126;SDS011;13080;42.608;23.362;2022-09-09T08:50:35;1.25;;;1.10;;
10126;SDS011;13080;42.608;23.362;2022-09-09T08:53:04;2.55;;;1.77;;
10126;SDS011;13080;42.608;23.362;2022-09-09T08:55:37;1.38;;;1.25;;
10126;SDS011;13080;42.608;23.362;2022-09-09T08:58:08;1.05;;;0.95;;
10126;SDS011;13080;42.608;23.362;2022-09-09T09:00:37;1.77;;;1.35;;
10126;SDS011;13080;42.608;23.362;2022-09-09T09:03:07;4.07;;;1.20;;
10126;SDS011;13080;42.608;23.362;2022-09-09T09:05:37;1.38;;;1.27;;
10126;SDS011;13080;42.608;23.362;2022-09-09T09:08:08;1.92;;;1.75;;
10126;SDS011;13080;42.608;23.362;2022-09-09T09:10:42;1.83;;;1.52;;
10126;SDS011;13080;42.608;23.362;2022-09-09T09:13:13;1.40;;;1.30;;
10126;SDS011;13080;42.608;23.362;2022-09-09T09:15:41;1.10;;;1.00;;
10126;SDS011;13080;42.608;23.362;2022-09-09T09:18:08;3.28;;;1.20;;
10126;SDS011;13080;42.608;23.362;2022-09-09T09:20:42;5.28;;;1.17;;
10126;SDS011;13080;42.608;23.362;2022-09-09T09:23:12;1.00;;;0.90;;
10126;SDS011;13080;42.608;23.362;2022-09-09T09:25:42;11.95;;;1.77;;
10126;SDS011;13080;42.608;23.362;2022-09-09T09:28:11;1.25;;;1.15;;
10126;SDS011;13080;42.608;23.362;2022-09-09T09:30:42;1.58;;;0.80;;
10126;SDS011;13080;42.608;23.362;2022-09-09T09:33:11;1.15;;;1.10;;
10126;SDS011;13080;42.608;23.362;2022-09-09T09:35:40;0.85;;;0.82;;
10126;SDS011;13080;42.608;23.362;2022-09-09T09:38:10;1.70;;;1.02;;
10126;SDS011;13080;42.608;23.362;2022-09-09T09:40:49;1.27;;;1.17;;
10126;SDS011;13080;42.608;23.362;2022-09-09T09:43:18;2.78;;;1.38;;
10126;SDS011;13080;42.608;23.362;2022-09-09T09:45:46;1.50;;;1.38;;
10126;SDS011;13080;42.608;23.362;2022-09-09T09:48:13;1.08;;;0.98;;
10126;SDS011;13080;42.608;23.362;2022-09-09T09:50:46;1.10;;;1.05;;
10126;SDS011;13080;42.608;23.362;2022-09-09T09:53:16;2.75;;;1.13;;
10126;SDS011;13080;42.608;23.362;2022-09-09T09:55:46;2.92;;;0.90;;
10126;SDS011;13080;42.608;23.362;2022-09-09T09:58:16;1.02;;;1.02;;
10126;SDS011;13080;42.608;23.362;2022-09-09T10:00:47;2.25;;;0.93;;
10126;SDS011;13080;42.608;23.362;2022-09-09T10:03:19;2.03;;;1.00;;
10126;SDS011;13080;42.608;23.362;2022-09-09T10:05:47;0.93;;;0.93;;
10126;SDS011;13080;42.608;23.362;2022-09-09T10:08:14;1.42;;;1.33;;
10126;SDS011;13080;42.608;23.362;2022-09-09T10:10:52;1.08;;;1.00;;
10126;SDS011;13080;42.608;23.362;2022-09-09T10:13:25;1.23;;;0.90;;
10126;SDS011;13080;42.608;23.362;2022-09-09T10:15:57;1.67;;;0.70;;
10126;SDS011;13080;42.608;23.362;2022-09-09T10:21:14;0.95;;;0.90;;
10126;SDS011;13080;42.608;23.362;2022-09-09T10:23:46;1.20;;;1.10;;
10126;SDS011;13080;42.608;23.362;2022-09-09T10:26:19;0.73;;;0.73;;
10126;SDS011;13080;42.608;23.362;2022-09-09T10:28:56;1.13;;;0.80;;
10126;SDS011;13080;42.608;23.362;2022-09-09T10:31:25;1.52;;;1.33;;
10126;SDS011;13080;42.608;23.362;2022-09-09T10:33:57;0.93;;;0.90;;
10126;SDS011;13080;42.608;23.362;2022-09-09T10:36:36;1.63;;;1.33;;
10126;SDS011;13080;42.608;23.362;2022-09-09T10:39:11;2.95;;;1.50;;
10126;SDS011;13080;42.608;23.362;2022-09-09T10:41:44;1.08;;;1.00;;
10126;SDS011;13080;42.608;23.362;2022-09-09T10:44:25;2.92;;;1.25;;
10126;SDS011;13080;42.608;23.362;2022-09-09T10:47:09;1.23;;;1.13;;
10126;SDS011;13080;42.608;23.362;2022-09-09T10:49:45;2.45;;;2.13;;
10126;SDS011;13080;42.608;23.362;2022-09-09T10:52:15;0.63;;;0.63;;
10126;SDS011;13080;42.608;23.362;2022-09-09T10:54:48;1.00;;;0.82;;
10126;SDS011;13080;42.608;23.362;2022-09-09T10:57:21;1.15;;;0.95;;
10126;SDS011;13080;42.608;23.362;2022-09-09T11:03:00;2.13;;;0.98;;
10126;SDS011;13080;42.608;23.362;2022-09-09T11:08:24;1.95;;;1.10;;
10126;SDS011;13080;42.608;23.362;2022-09-09T11:10:52;2.60;;;1.42;;
10126;SDS011;13080;42.608;23.362;2022-09-09T11:13:24;1.13;;;1.05;;
10126;SDS011;13080;42.608;23.362;2022-09-09T11:15:58;1.52;;;1.20;;
10126;SDS011;13080;42.608;23.362;2022-09-09T11:18:26;1.60;;;1.33;;
10126;SDS011;13080;42.608;23.362;2022-09-09T11:20:57;0.80;;;0.80;;
10126;SDS011;13080;42.608;23.362;2022-09-09T11:23:30;2.58;;;1.17;;
10126;SDS011;13080;42.608;23.362;2022-09-09T11:26:14;1.77;;;1.20;;
10126;SDS011;13080;42.608;23.362;2022-09-09T11:29:16;1.20;;;1.13;;
10126;SDS011;13080;42.608;23.362;2022-09-09T11:31:51;2.42;;;1.10;;
10126;SDS011;13080;42.608;23.362;2022-09-09T11:34:33;3.58;;;1.23;;
10126;SDS011;13080;42.608;23.362;2022-09-09T11:37:07;1.63;;;1.10;;
10126;SDS011;13080;42.608;23.362;2022-09-09T11:39:52;2.15;;;1.17;;
10126;SDS011;13080;42.608;23.362;2022-09-09T11:42:23;1.33;;;1.23;;
10126;SDS011;13080;42.608;23.362;2022-09-09T11:44:50;1.30;;;1.13;;
10126;SDS011;13080;42.608;23.362;2022-09-09T11:47:23;2.20;;;2.00;;
10126;SDS011;13080;42.608;23.362;2022-09-09T11:49:54;2.47;;;1.45;;
10126;SDS011;13080;42.608;23.362;2022-09-09T11:52:21;1.10;;;1.00;;
10126;SDS011;13080;42.608;23.362;2022-09-09T11:54:48;1.60;;;1.23;;
10126;SDS011;13080;42.608;23.362;2022-09-09T11:57:30;3.40;;;1.63;;
10126;SDS011;13080;42.608;23.362;2022-09-09T11:59:58;5.53;;;2.15;;
10126;SDS011;13080;42.608;23.362;2022-09-09T12:02:27;1.95;;;1.08;;
10126;SDS011;13080;42.608;23.362;2022-09-09T12:04:57;5.95;;;1.65;;
10126;SDS011;13080;42.608;23.362;2022-09-09T12:07:28;1.30;;;1.20;;
10126;SDS011;13080;42.608;23.362;2022-09-09T12:09:59;1.58;;;1.48;;
10126;SDS011;13080;42.608;23.362;2022-09-09T12:12:28;1.70;;;1.48;;
10126;SDS011;13080;42.608;23.362;2022-09-09T12:14:56;2.53;;;0.90;;
10126;SDS011;13080;42.608;23.362;2022-09-09T12:17:26;3.42;;;1.40;;
10126;SDS011;13080;42.608;23.362;2022-09-09T12:20:01;1.88;;;1.35;;
10126;SDS011;13080;42.608;23.362;2022-09-09T12:22:32;1.50;;;1.40;;
10126;SDS011;13080;42.608;23.362;2022-09-09T12:25:03;6.55;;;1.40;;
10126;SDS011;13080;42.608;23.362;2022-09-09T12:27:35;1.17;;;1.10;;
10126;SDS011;13080;42.608;23.362;2022-09-09T12:30:07;1.23;;;1.13;;
10126;SDS011;13080;42.608;23.362;2022-09-09T12:32:35;1.38;;;1.20;;
10126;SDS011;13080;42.608;23.362;2022-09-09T12:35:04;1.25;;;1.15;;
10126;SDS011;13080;42.608;23.362;2022-09-09T12:37:38;2.53;;;1.17;;
10126;SDS011;13080;42.608;23.362;2022-09-09T12:40:06;1.00;;;0.95;;
10126;SDS011;13080;42.608;23.362;2022-09-09T12:42:44;1.13;;;1.05;;
10126;SDS011;13080;42.608;23.362;2022-09-09T12:45:16;2.28;;;1.70;;
10126;SDS011;13080;42.608;23.362;2022-09-09T12:47:44;2.38;;;1.85;;
10126;SDS011;13080;42.608;23.362;2022-09-09T12:50:16;9.65;;;1.67;;
10126;SDS011;13080;42.608;23.362;2022-09-09T12:52:43;1.90;;;1.55;;
10126;SDS011;13080;42.608;23.362;2022-09-09T12:55:15;1.70;;;1.45;;
10126;SDS011;13080;42.608;23.362;2022-09-09T12:57:45;3.80;;;1.58;;
10126;SDS011;13080;42.608;23.362;2022-09-09T13:00:13;1.10;;;0.95;;
10126;SDS011;13080;42.608;23.362;2022-09-09T13:02:47;2.65;;;1.42;;
10126;SDS011;13080;42.608;23.362;2022-09-09T13:05:18;1.75;;;1.17;;
10126;SDS011;13080;42.608;23.362;2022-09-09T13:07:45;1.83;;;1.73;;
10126;SDS011;13080;42.608;23.362;2022-09-09T13:10:12;4.35;;;2.03;;
10126;SDS011;13080;42.608;23.362;2022-09-09T13:12:38;1.60;;;1.50;;
10126;SDS011;13080;42.608;23.362;2022-09-09T13:15:09;1.10;;;0.98;;
10126;SDS011;13080;42.608;23.362;2022-09-09T13:17:37;3.30;;;1.48;;
10126;SDS011;13080;42.608;23.362;2022-09-09T13:20:04;1.25;;;1.15;;
10126;SDS011;13080;42.608;23.362;2022-09-09T13:22:34;3.10;;;2.15;;
10126;SDS011;13080;42.608;23.362;2022-09-09T13:25:02;2.40;;;2.13;;
10126;SDS011;13080;42.608;23.362;2022-09-09T13:27:30;1.50;;;1.38;;
10126;SDS011;13080;42.608;23.362;2022-09-09T13:29:58;2.05;;;1.15;;
10126;SDS011;13080;42.608;23.362;2022-09-09T13:32:26;1.35;;;1.25;;
10126;SDS011;13080;42.608;23.362;2022-09-09T13:34:53;1.80;;;1.10;;
10126;SDS011;13080;42.608;23.362;2022-09-09T13:37:22;1.52;;;1.42;;
10126;SDS011;13080;42.608;23.362;2022-09-09T13:39:52;2.70;;;1.80;;
10126;SDS011;13080;42.608;23.362;2022-09-09T13:42:24;2.15;;;1.35;;
10126;SDS011;13080;42.608;23.362;2022-09-09T13:44:51;1.15;;;1.05;;
10126;SDS011;13080;42.608;23.362;2022-09-09T13:47:18;4.13;;;1.90;;
10126;SDS011;13080;42.608;23.362;2022-09-09T13:49:45;1.50;;;1.40;;
10126;SDS011;13080;42.608;23.362;2022-09-09T13:52:12;1.30;;;1.20;;
10126;SDS011;13080;42.608;23.362;2022-09-09T13:54:40;3.20;;;1.30;;
10126;SDS011;13080;42.608;23.362;2022-09-09T13:57:15;1.60;;;1.33;;
10126;SDS011;13080;42.608;23.362;2022-09-09T13:59:42;1.77;;;1.67;;
10126;SDS011;13080;42.608;23.362;2022-09-09T14:02:08;1.85;;;1.67;;
10126;SDS011;13080;42.608;23.362;2022-09-09T14:04:35;3.53;;;1.50;;
10126;SDS011;13080;42.608;23.362;2022-09-09T14:07:02;2.80;;;2.08;;
10126;SDS011;13080;42.608;23.362;2022-09-09T14:09:28;5.45;;;2.30;;
10126;SDS011;13080;42.608;23.362;2022-09-09T14:11:55;1.25;;;1.15;;
10126;SDS011;13080;42.608;23.362;2022-09-09T14:14:23;1.73;;;1.42;;
10126;SDS011;13080;42.608;23.362;2022-09-09T14:16:50;3.45;;;1.60;;
10126;SDS011;13080;42.608;23.362;2022-09-09T14:19:16;2.33;;;0.73;;
10126;SDS011;13080;42.608;23.362;2022-09-09T14:21:43;1.50;;;1.10;;
10126;SDS011;13080;42.608;23.362;2022-09-09T14:24:09;1.02;;;0.98;;
10126;SDS011;13080;42.608;23.362;2022-09-09T14:26:37;1.17;;;1.00;;
10126;SDS011;13080;42.608;23.362;2022-09-09T14:29:03;1.45;;;1.15;;
10126;SDS011;13080;42.608;23.362;2022-09-09T14:31:31;1.70;;;1.38;;
10126;SDS011;13080;42.608;23.362;2022-09-09T14:33:58;1.33;;;1.23;;
10126;SDS011;13080;42.608;23.362;2022-09-09T14:36:25;2.05;;;1.52;;
10126;SDS011;13080;42.608;23.362;2022-09-09T14:38:51;1.92;;;1.20;;
10126;SDS011;13080;42.608;23.362;2022-09-09T14:41:18;1.67;;;1.00;;
10126;SDS011;13080;42.608;23.362;2022-09-09T14:43:47;1.52;;;1.35;;
10126;SDS011;13080;42.608;23.362;2022-09-09T14:46:15;7.40;;;2.28;;
10126;SDS011;13080;42.608;23.362;2022-09-09T14:48:43;2.28;;;0.75;;
10126;SDS011;13080;42.608;23.362;2022-09-09T14:51:10;1.48;;;1.10;;
10126;SDS011;13080;42.608;23.362;2022-09-09T14:53:38;0.80;;;0.77;;
10126;SDS011;13080;42.608;23.362;2022-09-09T14:56:05;2.75;;;1.17;;
10126;SDS011;13080;42.608;23.362;2022-09-09T14:58:32;5.97;;;2.83;;
10126;SDS011;13080;42.608;23.362;2022-09-09T15:01:01;2.58;;;1.05;;
10126;SDS011;13080;42.608;23.362;2022-09-09T15:03:28;2.70;;;1.38;;
10126;SDS011;13080;42.608;23.362;2022-09-09T15:05:56;1.63;;;1.48;;
10126;SDS011;13080;42.608;23.362;2022-09-09T15:08:23;1.70;;;1.25;;
10126;SDS011;13080;42.608;23.362;2022-09-09T15:10:49;1.33;;;1.23;;
10126;SDS011;13080;42.608;23.362;2022-09-09T15:13:16;11.93;;;1.65;;
10126;SDS011;13080;42.608;23.362;2022-09-09T15:15:43;1.65;;;1.00;;
10126;SDS011;13080;42.608;23.362;2022-09-09T15:18:09;3.25;;;1.88;;
10126;SDS011;13080;42.608;23.362;2022-09-09T15:20:36;2.22;;;2.03;;
10126;SDS011;13080;42.608;23.362;2022-09-09T15:23:03;1.67;;;1.50;;